Terminal Aerodrome Forecast
Issued by NWS Louisville, KY

Home | Current Version | Previous Version | Text Only | Print | Product List | Glossary On
Versions: 1 2 3 4 5 6 7 8 9 10 11 12 13
000
FTUS43 KLMK 291700
TAFLEX
TAF
KLEX 291731Z 2918/3018 31007KT P6SM SCT035
     FM300000 VRB03KT P6SM FEW250
     FM300900 VRB03KT 5SM BR SKC
     FM301400 28005KT P6SM SCT040=

USA.gov is the U.S. government's official web portal to all federal, state and local government web resources and services.